createdAt,value
2018-07-05T00:00:49.546Z,9.10
2018-07-05T00:03:36.374Z,9.77
2018-07-05T00:06:24.830Z,9.83
2018-07-05T00:09:13.133Z,8.83
2018-07-05T00:12:01.447Z,8.33
2018-07-05T00:14:48.981Z,6.80
2018-07-05T00:17:35.696Z,9.30
2018-07-05T00:20:23.615Z,8.30
2018-07-05T00:23:10.185Z,10.93
2018-07-05T00:25:57.127Z,10.27
2018-07-05T00:28:43.820Z,7.43
2018-07-05T00:31:31.311Z,8.23
2018-07-05T00:34:18.037Z,11.20
2018-07-05T00:37:10.581Z,11.87
2018-07-05T00:39:57.922Z,8.90
2018-07-05T00:42:45.033Z,6.33
2018-07-05T00:45:36.955Z,6.97
2018-07-05T00:48:24.340Z,8.93
2018-07-05T00:51:11.454Z,7.60
2018-07-05T00:53:58.365Z,7.30
2018-07-05T00:56:46.508Z,9.13
2018-07-05T00:59:33.973Z,6.87
2018-07-05T01:02:20.269Z,7.63
2018-07-05T01:05:07.577Z,9.47
2018-07-05T01:07:57.870Z,6.40
2018-07-05T01:10:44.315Z,7.70
2018-07-05T01:13:32.257Z,7.90
2018-07-05T01:16:21.233Z,8.17
2018-07-05T01:19:09.644Z,6.90
2018-07-05T01:21:57.821Z,6.80
2018-07-05T01:24:45.113Z,9.37
2018-07-05T01:27:35.709Z,12.63
2018-07-05T01:30:22.937Z,7.00
2018-07-05T01:33:10.366Z,9.17
2018-07-05T01:36:00.760Z,9.20
2018-07-05T01:38:48.119Z,7.63
2018-07-05T01:41:34.408Z,7.20
2018-07-05T01:44:22.285Z,8.83
2018-07-05T01:47:09.239Z,8.07
2018-07-05T01:49:56.799Z,7.23
2018-07-05T01:52:44.462Z,8.47
2018-07-05T01:55:34.354Z,8.70
2018-07-05T01:58:21.094Z,6.40
2018-07-05T02:01:08.679Z,8.47
2018-07-05T02:03:55.388Z,8.10
2018-07-05T02:06:47.065Z,7.13
2018-07-05T02:09:36.897Z,7.73
2018-07-05T02:12:25.935Z,11.67
2018-07-05T02:15:15.528Z,7.97
2018-07-05T02:18:03.185Z,8.60
2018-07-05T02:20:50.341Z,7.10
2018-07-05T02:23:40.220Z,9.47
2018-07-05T02:26:28.242Z,6.57
2018-07-05T02:29:16.485Z,8.53
2018-07-05T02:32:05.484Z,10.13
2018-07-05T02:34:55.117Z,7.03
2018-07-05T02:37:47.586Z,7.70
2018-07-05T02:40:36.053Z,8.43
2018-07-05T02:43:24.145Z,8.83
2018-07-05T02:46:12.246Z,6.57
2018-07-05T02:48:58.749Z,9.07
2018-07-05T02:51:46.266Z,8.37
2018-07-05T02:54:35.941Z,8.83
2018-07-05T02:57:23.653Z,8.70
2018-07-05T03:00:11.517Z,7.30
2018-07-05T03:02:59.420Z,9.27
2018-07-05T03:05:47.436Z,7.87
2018-07-05T03:08:34.211Z,8.67
2018-07-05T03:11:22.514Z,10.90
2018-07-05T03:14:09.750Z,7.57
2018-07-05T03:16:57.627Z,8.40
2018-07-05T03:19:47.540Z,8.70
2018-07-05T03:22:35.573Z,8.40
2018-07-05T03:25:22.916Z,7.20
2018-07-05T03:28:09.698Z,8.10
2018-07-05T03:30:58.516Z,12.30
2018-07-05T03:33:45.539Z,11.23
2018-07-05T03:36:32.488Z,10.00
2018-07-05T03:39:20.025Z,9.53
2018-07-05T03:42:07.607Z,11.17
2018-07-05T03:44:56.167Z,7.77
2018-07-05T03:47:42.518Z,9.90
2018-07-05T03:50:34.319Z,9.37
2018-07-05T03:53:25.161Z,11.53
2018-07-05T03:56:12.090Z,8.73
2018-07-05T03:59:00.328Z,11.87
2018-07-05T04:01:49.252Z,9.77
2018-07-05T04:04:36.744Z,8.57
2018-07-05T04:07:26.979Z,12.70
2018-07-05T04:10:18.062Z,9.43
2018-07-05T04:13:10.198Z,11.83
2018-07-05T04:16:01.056Z,10.67
2018-07-05T04:18:49.533Z,11.33
2018-07-05T04:21:36.243Z,13.00
2018-07-05T04:24:24.233Z,13.33
2018-07-05T04:27:12.337Z,10.60
2018-07-05T04:29:59.283Z,11.17
2018-07-05T04:32:46.899Z,11.40
2018-07-05T04:35:33.565Z,12.63
2018-07-05T04:38:20.839Z,13.97
2018-07-05T04:41:12.620Z,11.80
2018-07-05T04:44:01.014Z,11.17
2018-07-05T04:46:47.680Z,11.63
2018-07-05T04:49:35.456Z,12.43
2018-07-05T04:52:24.913Z,12.27
2018-07-05T04:55:13.870Z,12.47
2018-07-05T04:58:06.691Z,14.83
2018-07-05T05:00:54.177Z,11.90
2018-07-05T05:03:41.785Z,11.87
2018-07-05T05:06:28.414Z,14.97
2018-07-05T05:09:16.229Z,18.40
2018-07-05T05:12:05.726Z,14.17
2018-07-05T05:14:54.790Z,20.13
2018-07-05T05:17:42.003Z,15.43
2018-07-05T05:20:29.123Z,13.73
2018-07-05T05:23:19.814Z,15.60
2018-07-05T05:26:09.855Z,15.63
2018-07-05T05:28:57.825Z,15.97
2018-07-05T05:31:45.864Z,16.27
2018-07-05T05:34:35.432Z,16.20
2018-07-05T05:37:22.528Z,15.73
2018-07-05T05:40:17.986Z,15.67
2018-07-05T05:43:06.897Z,19.23
2018-07-05T05:45:53.161Z,17.93
2018-07-05T05:48:40.792Z,18.83
2018-07-05T05:51:28.405Z,18.30
2018-07-05T05:54:17.180Z,19.37
2018-07-05T05:57:05.836Z,18.30
2018-07-05T05:59:54.203Z,18.30
2018-07-05T06:02:41.960Z,21.27
2018-07-05T06:05:29.266Z,16.67
2018-07-05T06:08:16.979Z,15.27
2018-07-05T06:11:09.009Z,14.57
2018-07-05T06:13:55.933Z,15.57
2018-07-05T06:16:43.067Z,15.07
2018-07-05T06:19:31.426Z,14.53
2018-07-05T06:22:19.978Z,16.70
2018-07-05T06:25:08.039Z,14.53
2018-07-05T06:27:54.806Z,12.60
2018-07-05T06:30:42.916Z,13.10
2018-07-05T06:33:30.047Z,10.43
2018-07-05T06:36:17.759Z,9.17
2018-07-05T06:39:07.498Z,11.20
2018-07-05T06:41:55.705Z,9.63
2018-07-05T06:44:42.623Z,10.47
2018-07-05T06:47:33.379Z,9.83
2018-07-05T06:50:22.099Z,8.80
2018-07-05T06:53:09.488Z,9.63
2018-07-05T06:55:56.894Z,9.67
2018-07-05T06:58:44.613Z,10.07
2018-07-05T07:01:31.646Z,11.53
2018-07-05T07:04:21.004Z,8.50
2018-07-05T07:07:09.142Z,8.70
2018-07-05T07:09:56.149Z,11.13
2018-07-05T07:12:42.711Z,12.43
2018-07-05T07:15:31.001Z,8.53
2018-07-05T07:18:18.928Z,8.40
2018-07-05T07:21:07.550Z,9.73
2018-07-05T07:23:57.866Z,10.43
2018-07-05T07:26:44.545Z,11.40
2018-07-05T07:29:31.215Z,10.23
2018-07-05T07:32:19.646Z,7.50
2018-07-05T07:35:12.014Z,11.80
2018-07-05T07:37:59.096Z,10.83
2018-07-05T07:40:45.426Z,7.83
2018-07-05T07:43:21.146Z,10.97
2018-07-05T07:45:55.403Z,7.67
2018-07-05T07:48:24.505Z,10.63
2018-07-05T07:50:53.917Z,10.60
2018-07-05T07:53:29.018Z,9.60
2018-07-05T07:55:57.413Z,7.87
2018-07-05T07:58:26.356Z,8.27
2018-07-05T08:00:55.997Z,7.70
2018-07-05T08:03:23.975Z,6.83
2018-07-05T08:05:54.496Z,8.80
2018-07-05T08:08:23.027Z,6.53
2018-07-05T08:10:51.585Z,7.73
2018-07-05T08:13:21.089Z,8.53
2018-07-05T08:15:49.922Z,8.03
2018-07-05T08:18:19.295Z,7.60
2018-07-05T08:20:47.561Z,9.47
2018-07-05T08:23:15.941Z,7.13
2018-07-05T08:25:44.246Z,8.07
2018-07-05T08:28:12.819Z,9.40
2018-07-05T08:30:42.141Z,10.17
2018-07-05T08:33:10.424Z,8.00
2018-07-05T08:35:39.092Z,11.80
2018-07-05T08:38:07.663Z,8.70
2018-07-05T08:40:38.572Z,9.93
2018-07-05T08:43:07.299Z,8.10
2018-07-05T08:45:35.950Z,9.90
2018-07-05T08:48:03.796Z,10.90
2018-07-05T08:50:32.054Z,9.50
2018-07-05T08:53:01.523Z,12.03
2018-07-05T08:55:30.777Z,8.60
2018-07-05T08:57:59.760Z,16.33
2018-07-05T09:00:29.479Z,11.50
2018-07-05T09:02:57.825Z,10.40
2018-07-05T09:05:27.139Z,7.73
2018-07-05T09:07:56.049Z,14.77
2018-07-05T09:10:26.025Z,8.80
2018-07-05T09:12:54.305Z,9.23
2018-07-05T09:15:26.427Z,12.23
2018-07-05T09:17:54.681Z,12.23
2018-07-05T09:20:22.980Z,13.00
2018-07-05T09:22:53.929Z,15.10
2018-07-05T09:25:21.995Z,11.57
2018-07-05T09:27:51.884Z,10.93
2018-07-05T09:30:21.160Z,9.33
2018-07-05T09:32:50.103Z,12.73
2018-07-05T09:35:18.428Z,9.63
2018-07-05T09:37:47.154Z,12.17
2018-07-05T09:40:15.525Z,12.30
2018-07-05T09:42:44.487Z,7.47
2018-07-05T09:45:12.354Z,7.80
2018-07-05T09:47:40.813Z,8.97
2018-07-05T09:50:09.491Z,9.30
2018-07-05T09:52:38.840Z,7.27
2018-07-05T09:55:09.115Z,6.50
2018-07-05T09:57:38.891Z,5.77
2018-07-05T10:00:11.989Z,5.50
2018-07-05T10:02:41.507Z,7.00
2018-07-05T10:05:10.175Z,6.70
2018-07-05T10:07:38.998Z,6.07
2018-07-05T10:10:08.258Z,6.13
2018-07-05T10:12:44.569Z,5.93
2018-07-05T10:15:12.394Z,8.70
2018-07-05T10:17:41.387Z,5.73
2018-07-05T10:20:09.560Z,6.47
2018-07-05T10:22:38.342Z,4.93
2018-07-05T10:25:07.875Z,5.43
2018-07-05T10:27:36.700Z,5.60
2018-07-05T10:30:17.226Z,6.13
2018-07-05T10:33:03.692Z,6.70
2018-07-05T10:35:40.770Z,5.63
2018-07-05T10:38:09.584Z,4.17
2018-07-05T10:40:49.642Z,5.23
2018-07-05T10:43:36.626Z,4.37
2018-07-05T10:46:23.436Z,4.90
2018-07-05T10:49:10.160Z,5.60
2018-07-05T10:51:56.696Z,4.83
2018-07-05T10:54:48.041Z,6.03
2018-07-05T10:57:36.542Z,4.43
2018-07-05T11:00:23.279Z,5.87
2018-07-05T11:03:10.984Z,4.33
2018-07-05T11:05:58.052Z,5.00
2018-07-05T11:08:45.612Z,4.20
2018-07-05T11:11:33.016Z,6.00
2018-07-05T11:14:21.500Z,5.27
2018-07-05T11:17:08.511Z,5.37
2018-07-05T11:19:57.344Z,5.70
2018-07-05T11:22:44.324Z,5.80
2018-07-05T11:25:36.155Z,5.30
2018-07-05T11:28:24.483Z,7.83
2018-07-05T11:31:13.348Z,7.17
2018-07-05T11:34:00.749Z,6.63
2018-07-05T11:36:51.497Z,6.50
2018-07-05T11:39:38.164Z,7.43
2018-07-05T11:42:25.462Z,5.97
2018-07-05T11:45:14.697Z,7.67
2018-07-05T11:48:02.896Z,5.80
2018-07-05T11:50:50.148Z,7.87
2018-07-05T11:53:37.076Z,6.40
2018-07-05T11:56:25.432Z,5.80
2018-07-05T11:59:13.200Z,5.57
2018-07-05T12:02:01.040Z,5.20
2018-07-05T12:04:50.246Z,5.87
2018-07-05T12:07:38.640Z,7.67
2018-07-05T12:10:27.591Z,4.67
2018-07-05T12:13:14.574Z,6.30
2018-07-05T12:16:01.364Z,6.27
2018-07-05T12:18:48.838Z,6.33
2018-07-05T12:21:36.757Z,8.40
2018-07-05T12:24:23.463Z,7.17
2018-07-05T12:27:10.984Z,5.67
2018-07-05T12:29:59.209Z,11.23
2018-07-05T12:32:46.829Z,5.40
2018-07-05T12:35:34.341Z,5.37
2018-07-05T12:38:21.666Z,5.37
2018-07-05T12:41:12.252Z,5.23
2018-07-05T12:43:58.544Z,7.53
2018-07-05T12:46:45.495Z,5.63
2018-07-05T12:49:32.128Z,4.80
2018-07-05T12:52:19.324Z,7.10
2018-07-05T12:55:05.948Z,7.47
2018-07-05T12:57:54.048Z,6.47
2018-07-05T13:00:42.517Z,6.50
2018-07-05T13:03:30.516Z,5.80
2018-07-05T13:06:17.614Z,5.00
2018-07-05T13:09:05.613Z,7.77
2018-07-05T13:11:53.780Z,7.17
2018-07-05T13:14:41.754Z,6.17
2018-07-05T13:17:28.692Z,4.13
2018-07-05T13:20:16.838Z,3.83
2018-07-05T13:23:04.327Z,2.63
2018-07-05T13:25:51.716Z,3.33
2018-07-05T13:28:38.964Z,2.67
2018-07-05T13:31:27.293Z,3.77
2018-07-05T13:34:14.002Z,3.97
2018-07-05T13:37:01.105Z,5.73
2018-07-05T13:39:48.620Z,3.40
2018-07-05T13:42:35.742Z,4.70
2018-07-05T13:45:23.165Z,4.37
2018-07-05T13:48:10.392Z,4.03
2018-07-05T13:50:57.203Z,6.23
2018-07-05T13:53:48.296Z,7.23
2018-07-05T13:56:35.927Z,13.10
2018-07-05T13:59:23.330Z,7.50
2018-07-05T14:02:09.987Z,4.37
2018-07-05T14:05:00.501Z,5.17
2018-07-05T14:07:47.031Z,9.17
2018-07-05T14:10:34.092Z,17.77
2018-07-05T14:13:20.770Z,38.00
2018-07-05T14:16:10.492Z,72.87
2018-07-05T14:18:57.966Z,25.63
2018-07-05T14:21:44.892Z,13.40
2018-07-05T14:24:32.323Z,21.53
2018-07-05T14:27:19.013Z,9.17
2018-07-05T14:30:06.785Z,8.93
2018-07-05T14:32:54.219Z,9.83
2018-07-05T14:35:41.904Z,8.53
2018-07-05T14:38:29.181Z,5.83
2018-07-05T14:41:17.750Z,8.53
2018-07-05T14:44:05.085Z,8.37
2018-07-05T14:46:52.004Z,9.70
2018-07-05T14:49:38.794Z,8.03
2018-07-05T14:52:25.515Z,5.93
2018-07-05T14:55:12.976Z,12.93
2018-07-05T14:58:00.387Z,7.63
2018-07-05T15:00:47.094Z,7.87
2018-07-05T15:03:34.064Z,12.13
2018-07-05T15:06:21.012Z,7.63
2018-07-05T15:09:09.218Z,8.03
2018-07-05T15:11:56.713Z,8.97
2018-07-05T15:14:47.009Z,10.37
2018-07-05T15:17:33.602Z,7.77
2018-07-05T15:20:20.111Z,7.57
2018-07-05T15:23:06.664Z,10.13
2018-07-05T15:25:54.228Z,9.10
2018-07-05T15:28:40.622Z,6.10
2018-07-05T15:31:27.474Z,13.23
2018-07-05T15:34:14.877Z,6.10
2018-07-05T15:37:01.245Z,6.23
2018-07-05T15:39:48.548Z,9.30
2018-07-05T15:42:35.783Z,14.40
2018-07-05T15:45:22.401Z,23.13
2018-07-05T15:48:09.050Z,8.33
2018-07-05T15:50:56.058Z,28.57
2018-07-05T15:53:43.367Z,8.30
2018-07-05T15:56:30.044Z,33.77
2018-07-05T15:59:16.750Z,23.13
2018-07-05T16:02:04.291Z,77.63
2018-07-05T16:04:51.970Z,46.13
2018-07-05T16:07:38.649Z,58.67
2018-07-05T16:10:25.988Z,8.03
2018-07-05T16:13:12.332Z,13.73
2018-07-05T16:16:00.993Z,38.00
2018-07-05T16:18:47.826Z,9.80
2018-07-05T16:21:35.882Z,8.30
2018-07-05T16:24:22.932Z,13.93
2018-07-05T16:27:11.450Z,11.00
2018-07-05T16:29:58.701Z,8.83
2018-07-05T16:32:46.521Z,12.83
2018-07-05T16:35:32.922Z,7.70
2018-07-05T16:38:19.428Z,7.47
2018-07-05T16:41:05.967Z,11.70
2018-07-05T16:43:53.731Z,11.10
2018-07-05T16:46:41.059Z,9.53
2018-07-05T16:49:28.455Z,6.73
2018-07-05T16:52:14.721Z,12.30
2018-07-05T16:55:01.816Z,6.60
2018-07-05T16:57:48.476Z,7.83
2018-07-05T17:00:35.690Z,9.40
2018-07-05T17:03:23.986Z,8.37
2018-07-05T17:06:11.854Z,7.60
2018-07-05T17:08:58.599Z,11.00
2018-07-05T17:11:45.673Z,11.37
2018-07-05T17:14:34.373Z,13.93
2018-07-05T17:17:22.972Z,8.10
2018-07-05T17:20:11.627Z,10.97
2018-07-05T17:22:59.129Z,8.93
2018-07-05T17:25:45.776Z,12.63
2018-07-05T17:28:33.094Z,10.43
2018-07-05T17:31:20.290Z,15.23
2018-07-05T17:34:08.224Z,9.50
2018-07-05T17:36:55.503Z,7.27
2018-07-05T17:39:42.813Z,8.07
2018-07-05T17:42:29.300Z,5.80
2018-07-05T17:45:16.376Z,7.17
2018-07-05T17:48:03.170Z,12.10
2018-07-05T17:50:50.355Z,6.63
2018-07-05T17:53:37.534Z,6.40
2018-07-05T17:56:24.300Z,6.03
2018-07-05T17:59:11.162Z,5.60
2018-07-05T18:01:57.596Z,8.10
2018-07-05T18:04:44.479Z,7.37
2018-07-05T18:07:33.205Z,14.70
2018-07-05T18:10:21.857Z,6.73
2018-07-05T18:13:09.409Z,9.00
2018-07-05T18:15:56.363Z,7.43
2018-07-05T18:18:42.851Z,7.77
2018-07-05T18:21:30.504Z,6.57
2018-07-05T18:24:18.294Z,14.43
2018-07-05T18:27:06.503Z,11.07
2018-07-05T18:29:53.250Z,8.80
2018-07-05T18:32:40.443Z,10.50
2018-07-05T18:35:27.399Z,8.40
2018-07-05T18:38:14.574Z,9.07
2018-07-05T18:41:01.542Z,6.67
2018-07-05T18:43:50.966Z,9.40
2018-07-05T18:46:39.549Z,7.83
2018-07-05T18:49:27.885Z,21.23
2018-07-05T18:52:14.298Z,8.77
2018-07-05T18:55:01.668Z,10.80
2018-07-05T18:57:48.295Z,9.97
2018-07-05T19:00:39.176Z,7.80
2018-07-05T19:03:30.502Z,8.33
2018-07-05T19:06:20.839Z,8.37
2018-07-05T19:09:09.104Z,7.97
2018-07-05T19:12:01.942Z,8.63
2018-07-05T19:14:55.669Z,9.07
2018-07-05T19:17:49.773Z,12.93
2018-07-05T19:20:40.493Z,8.73
2018-07-05T19:23:29.310Z,15.27
2018-07-05T19:26:18.222Z,27.17
2018-07-05T19:29:05.430Z,14.60
2018-07-05T19:31:52.473Z,11.67
2018-07-05T19:34:42.304Z,17.37
2018-07-05T19:37:32.679Z,9.97
2018-07-05T19:40:23.162Z,16.10
2018-07-05T19:43:09.563Z,9.63
2018-07-05T19:45:56.506Z,10.80
2018-07-05T19:48:48.212Z,10.90
2018-07-05T19:51:35.480Z,12.20
2018-07-05T19:54:22.007Z,13.57
2018-07-05T19:57:09.167Z,15.00
2018-07-05T19:59:59.006Z,10.50
2018-07-05T20:02:46.544Z,9.87
2018-07-05T20:05:32.940Z,11.80
2018-07-05T20:08:19.556Z,14.90
2018-07-05T20:11:07.354Z,14.87
2018-07-05T20:13:54.685Z,19.77
2018-07-05T20:16:41.999Z,11.60
2018-07-05T20:19:32.603Z,19.43
2018-07-05T20:22:20.128Z,23.63
2018-07-05T20:25:07.282Z,15.97
2018-07-05T20:27:53.667Z,20.10
2018-07-05T20:30:42.623Z,13.63
2018-07-05T20:33:29.785Z,11.40
2018-07-05T20:36:18.983Z,12.20
2018-07-05T20:39:06.463Z,11.43
2018-07-05T20:41:54.534Z,10.90
2018-07-05T20:44:41.991Z,18.23
2018-07-05T20:47:28.843Z,12.90
2018-07-05T20:50:15.233Z,17.23
2018-07-05T20:53:02.723Z,15.03
2018-07-05T20:55:50.636Z,12.97
2018-07-05T20:58:41.590Z,15.77
2018-07-05T21:01:28.453Z,14.93
2018-07-05T21:04:15.568Z,14.30
2018-07-05T21:07:02.264Z,23.00
2018-07-05T21:09:49.209Z,15.60
2018-07-05T21:12:37.887Z,13.60
2018-07-05T21:15:26.502Z,13.63
2018-07-05T21:18:16.166Z,17.20
2018-07-05T21:21:03.508Z,14.27
2018-07-05T21:23:50.910Z,14.50
2018-07-05T21:26:39.376Z,13.17
2018-07-05T21:29:32.081Z,17.27
2018-07-05T21:32:18.922Z,13.03
2018-07-05T21:35:06.719Z,14.97
2018-07-05T21:37:54.614Z,17.10
2018-07-05T21:40:41.590Z,18.47
2018-07-05T21:43:34.141Z,14.10
2018-07-05T21:46:22.175Z,15.73
2018-07-05T21:49:09.888Z,16.27
2018-07-05T21:51:56.687Z,14.50
2018-07-05T21:54:43.257Z,15.67
2018-07-05T21:57:30.622Z,16.57
2018-07-05T22:00:18.739Z,16.73
2018-07-05T22:03:05.354Z,19.43
2018-07-05T22:05:52.315Z,23.57
2018-07-05T22:08:39.077Z,26.50
2018-07-05T22:11:26.400Z,34.13
2018-07-05T22:14:14.129Z,23.07
2018-07-05T22:17:08.135Z,28.03
2018-07-05T22:20:01.102Z,24.67
2018-07-05T22:22:54.227Z,16.23
2018-07-05T22:25:47.052Z,16.47
2018-07-05T22:28:41.037Z,15.53
2018-07-05T22:31:31.459Z,14.17
2018-07-05T22:34:18.660Z,15.87
2018-07-05T22:37:06.910Z,18.13
2018-07-05T22:39:55.629Z,17.00
2018-07-05T22:42:42.396Z,14.43
2018-07-05T22:45:30.612Z,14.30
2018-07-05T22:48:18.414Z,16.60
2018-07-05T22:51:05.912Z,16.73
2018-07-05T22:53:53.470Z,15.07
2018-07-05T22:56:41.740Z,16.77
2018-07-05T22:59:28.572Z,14.40
2018-07-05T23:02:15.560Z,16.53
2018-07-05T23:05:02.401Z,14.60
2018-07-05T23:07:49.701Z,15.23
2018-07-05T23:10:36.890Z,15.73
2018-07-05T23:13:24.937Z,14.53
2018-07-05T23:16:12.264Z,19.07
2018-07-05T23:18:59.408Z,15.83
2018-07-05T23:21:46.429Z,16.97
2018-07-05T23:24:32.927Z,18.43
2018-07-05T23:27:20.053Z,17.00
2018-07-05T23:30:07.152Z,16.97
2018-07-05T23:32:55.079Z,17.60
2018-07-05T23:35:41.916Z,16.53
2018-07-05T23:38:28.620Z,16.60
2018-07-05T23:41:16.439Z,19.90
2018-07-05T23:44:05.413Z,19.73
2018-07-05T23:46:52.773Z,16.73
2018-07-05T23:49:39.741Z,17.23
2018-07-05T23:52:27.272Z,18.03
2018-07-05T23:55:15.734Z,17.37
2018-07-05T23:58:02.629Z,17.67
